sensor_id;sensor_type;location;lat;lon;timestamp;temperature;humidity
41557;DHT22;27720;51.992;5.890;2023-08-08T00:01:45;17.00;99.90
41557;DHT22;27720;51.992;5.890;2023-08-08T00:04:11;16.90;99.90
41557;DHT22;27720;51.992;5.890;2023-08-08T00:06:37;16.90;99.90
41557;DHT22;27720;51.992;5.890;2023-08-08T00:09:03;16.90;99.90
41557;DHT22;27720;51.992;5.890;2023-08-08T00:11:30;16.90;99.90
41557;DHT22;27720;51.992;5.890;2023-08-08T00:13:57;16.80;99.90
41557;DHT22;27720;51.992;5.890;2023-08-08T00:16:23;16.80;99.90
41557;DHT22;27720;51.992;5.890;2023-08-08T00:18:48;16.80;99.90
41557;DHT22;27720;51.992;5.890;2023-08-08T00:21:20;16.80;99.90
41557;DHT22;27720;51.992;5.890;2023-08-08T00:23:46;16.80;99.90
41557;DHT22;27720;51.992;5.890;2023-08-08T00:26:12;16.80;99.90
41557;DHT22;27720;51.992;5.890;2023-08-08T00:28:37;16.80;99.90
41557;DHT22;27720;51.992;5.890;2023-08-08T00:31:03;16.80;99.90
41557;DHT22;27720;51.992;5.890;2023-08-08T00:33:29;16.80;99.90
41557;DHT22;27720;51.992;5.890;2023-08-08T00:35:58;16.80;99.90
41557;DHT22;27720;51.992;5.890;2023-08-08T00:38:24;16.80;99.90
41557;DHT22;27720;51.992;5.890;2023-08-08T00:40:50;16.80;99.90
41557;DHT22;27720;51.992;5.890;2023-08-08T00:43:18;16.90;99.90
41557;DHT22;27720;51.992;5.890;2023-08-08T00:45:44;16.90;99.90
41557;DHT22;27720;51.992;5.890;2023-08-08T08:58:56;17.90;99.90
41557;DHT22;27720;51.992;5.890;2023-08-08T09:01:23;18.20;99.90
41557;DHT22;27720;51.992;5.890;2023-08-08T09:03:49;18.50;99.90
41557;DHT22;27720;51.992;5.890;2023-08-08T09:06:15;19.00;99.90
41557;DHT22;27720;51.992;5.890;2023-08-08T09:08:42;19.40;99.90
41557;DHT22;27720;51.992;5.890;2023-08-08T09:11:08;19.70;99.90
41557;DHT22;27720;51.992;5.890;2023-08-08T09:13:38;19.90;99.90
41557;DHT22;27720;51.992;5.890;2023-08-08T09:16:07;20.10;99.90
41557;DHT22;27720;51.992;5.890;2023-08-08T09:18:34;20.30;99.90
41557;DHT22;27720;51.992;5.890;2023-08-08T09:21:00;20.50;99.90
41557;DHT22;27720;51.992;5.890;2023-08-08T09:23:26;20.60;98.60
41557;DHT22;27720;51.992;5.890;2023-08-08T09:25:54;20.60;98.90
41557;DHT22;27720;51.992;5.890;2023-08-08T09:28:20;20.70;99.00
41557;DHT22;27720;51.992;5.890;2023-08-08T09:30:46;20.80;98.00
41557;DHT22;27720;51.992;5.890;2023-08-08T09:33:12;20.80;96.10
41557;DHT22;27720;51.992;5.890;2023-08-08T09:35:38;20.80;95.50
41557;DHT22;27720;51.992;5.890;2023-08-08T09:38:04;20.80;95.40
41557;DHT22;27720;51.992;5.890;2023-08-08T09:40:30;20.90;95.50
41557;DHT22;27720;51.992;5.890;2023-08-08T09:42:57;21.00;95.70
41557;DHT22;27720;51.992;5.890;2023-08-08T09:45:24;21.20;94.90
41557;DHT22;27720;51.992;5.890;2023-08-08T09:47:51;21.20;92.60
41557;DHT22;27720;51.992;5.890;2023-08-08T09:50:18;21.20;93.00
41557;DHT22;27720;51.992;5.890;2023-08-08T09:52:46;21.20;93.30
41557;DHT22;27720;51.992;5.890;2023-08-08T09:55:13;21.30;93.30
41557;DHT22;27720;51.992;5.890;2023-08-08T09:57:40;21.30;92.10
41557;DHT22;27720;51.992;5.890;2023-08-08T10:00:07;21.20;90.70
41557;DHT22;27720;51.992;5.890;2023-08-08T10:02:45;21.20;90.30
41557;DHT22;27720;51.992;5.890;2023-08-08T10:05:12;21.30;90.90
41557;DHT22;27720;51.992;5.890;2023-08-08T10:07:40;21.30;90.30
41557;DHT22;27720;51.992;5.890;2023-08-08T10:10:07;21.30;90.30
41557;DHT22;27720;51.992;5.890;2023-08-08T10:12:37;21.40;88.40
41557;DHT22;27720;51.992;5.890;2023-08-08T10:15:07;21.40;88.90
41557;DHT22;27720;51.992;5.890;2023-08-08T10:17:40;21.50;88.90
41557;DHT22;27720;51.992;5.890;2023-08-08T10:20:09;21.50;88.20
41557;DHT22;27720;51.992;5.890;2023-08-08T10:22:47;21.40;86.30
41557;DHT22;27720;51.992;5.890;2023-08-08T10:25:26;21.40;87.60
41557;DHT22;27720;51.992;5.890;2023-08-08T10:28:03;21.40;86.30
41557;DHT22;27720;51.992;5.890;2023-08-08T10:30:29;21.40;84.30
41557;DHT22;27720;51.992;5.890;2023-08-08T10:32:56;21.50;84.60
41557;DHT22;27720;51.992;5.890;2023-08-08T10:35:23;21.70;85.00
41557;DHT22;27720;51.992;5.890;2023-08-08T10:37:54;21.80;84.50
41557;DHT22;27720;51.992;5.890;2023-08-08T10:40:20;21.80;82.80
41557;DHT22;27720;51.992;5.890;2023-08-08T10:42:47;21.80;82.50
41557;DHT22;27720;51.992;5.890;2023-08-08T10:45:15;22.00;82.40
41557;DHT22;27720;51.992;5.890;2023-08-08T10:47:42;22.10;81.30
41557;DHT22;27720;51.992;5.890;2023-08-08T10:50:13;22.30;81.80
41557;DHT22;27720;51.992;5.890;2023-08-08T10:55:27;22.50;78.50
41557;DHT22;27720;51.992;5.890;2023-08-08T10:58:08;22.60;79.10
41557;DHT22;27720;51.992;5.890;2023-08-08T11:00:39;22.60;77.40
41557;DHT22;27720;51.992;5.890;2023-08-08T11:03:08;22.60;77.00
41557;DHT22;27720;51.992;5.890;2023-08-08T11:05:36;22.50;76.90
41557;DHT22;27720;51.992;5.890;2023-08-08T11:08:03;22.40;77.90
41557;DHT22;27720;51.992;5.890;2023-08-08T11:10:34;22.40;78.60
41557;DHT22;27720;51.992;5.890;2023-08-08T11:13:03;22.40;76.50
41557;DHT22;27720;51.992;5.890;2023-08-08T11:15:30;22.30;76.80
41557;DHT22;27720;51.992;5.890;2023-08-08T11:18:01;22.40;76.30
41557;DHT22;27720;51.992;5.890;2023-08-08T11:20:32;22.60;76.70
41557;DHT22;27720;51.992;5.890;2023-08-08T11:22:59;22.60;76.40
41557;DHT22;27720;51.992;5.890;2023-08-08T11:25:29;22.70;76.40
41557;DHT22;27720;51.992;5.890;2023-08-08T11:27:56;22.60;76.10
41557;DHT22;27720;51.992;5.890;2023-08-08T11:30:23;22.50;75.80
41557;DHT22;27720;51.992;5.890;2023-08-08T11:32:50;22.40;75.80
41557;DHT22;27720;51.992;5.890;2023-08-08T11:35:17;22.30;74.80
41557;DHT22;27720;51.992;5.890;2023-08-08T11:37:45;22.20;75.60
41557;DHT22;27720;51.992;5.890;2023-08-08T11:40:13;22.20;75.00
41557;DHT22;27720;51.992;5.890;2023-08-08T11:42:39;22.10;73.90
41557;DHT22;27720;51.992;5.890;2023-08-08T11:45:08;22.00;74.60
41557;DHT22;27720;51.992;5.890;2023-08-08T11:47:35;22.00;75.50
41557;DHT22;27720;51.992;5.890;2023-08-08T11:50:08;22.10;75.50
41557;DHT22;27720;51.992;5.890;2023-08-08T11:52:43;22.20;75.10
41557;DHT22;27720;51.992;5.890;2023-08-08T11:55:09;22.30;74.90
41557;DHT22;27720;51.992;5.890;2023-08-08T11:57:36;22.50;74.60
41557;DHT22;27720;51.992;5.890;2023-08-08T12:00:10;22.70;74.50
41557;DHT22;27720;51.992;5.890;2023-08-08T12:02:40;22.90;74.10
41557;DHT22;27720;51.992;5.890;2023-08-08T12:05:12;23.00;73.60
41557;DHT22;27720;51.992;5.890;2023-08-08T12:07:39;23.20;72.60
41557;DHT22;27720;51.992;5.890;2023-08-08T12:10:28;23.30;72.60
41557;DHT22;27720;51.992;5.890;2023-08-08T12:12:55;23.30;72.80
41557;DHT22;27720;51.992;5.890;2023-08-08T12:15:23;23.30;72.00
41557;DHT22;27720;51.992;5.890;2023-08-08T12:17:49;23.30;71.90
41557;DHT22;27720;51.992;5.890;2023-08-08T12:20:15;23.40;71.60
41557;DHT22;27720;51.992;5.890;2023-08-08T12:22:41;23.40;71.20
41557;DHT22;27720;51.992;5.890;2023-08-08T12:25:07;23.40;71.20
41557;DHT22;27720;51.992;5.890;2023-08-08T12:27:33;23.50;70.40
41557;DHT22;27720;51.992;5.890;2023-08-08T12:29:59;23.60;70.60
41557;DHT22;27720;51.992;5.890;2023-08-08T12:32:26;23.80;70.80
41557;DHT22;27720;51.992;5.890;2023-08-08T12:34:54;24.00;70.30
41557;DHT22;27720;51.992;5.890;2023-08-08T12:37:22;24.30;69.90
41557;DHT22;27720;51.992;5.890;2023-08-08T12:39:48;24.50;68.10
41557;DHT22;27720;51.992;5.890;2023-08-08T12:42:15;24.60;68.30
41557;DHT22;27720;51.992;5.890;2023-08-08T12:44:40;24.50;65.90
41557;DHT22;27720;51.992;5.890;2023-08-08T12:47:06;24.30;66.30
41557;DHT22;27720;51.992;5.890;2023-08-08T12:49:32;24.30;66.80
41557;DHT22;27720;51.992;5.890;2023-08-08T12:51:57;24.30;67.50
41557;DHT22;27720;51.992;5.890;2023-08-08T12:54:23;24.30;67.30
41557;DHT22;27720;51.992;5.890;2023-08-08T12:56:49;24.20;68.20
41557;DHT22;27720;51.992;5.890;2023-08-08T12:59:14;24.10;68.00
41557;DHT22;27720;51.992;5.890;2023-08-08T13:01:40;24.20;68.60
41557;DHT22;27720;51.992;5.890;2023-08-08T13:04:06;24.20;67.10
41557;DHT22;27720;51.992;5.890;2023-08-08T13:06:32;24.10;67.40
41557;DHT22;27720;51.992;5.890;2023-08-08T13:08:58;23.90;67.70
41557;DHT22;27720;51.992;5.890;2023-08-08T13:11:25;23.80;68.20
41557;DHT22;27720;51.992;5.890;2023-08-08T13:13:51;23.70;67.60
41557;DHT22;27720;51.992;5.890;2023-08-08T13:16:16;23.60;68.10
41557;DHT22;27720;51.992;5.890;2023-08-08T13:18:42;23.40;67.50
41557;DHT22;27720;51.992;5.890;2023-08-08T13:21:08;23.20;68.10
41557;DHT22;27720;51.992;5.890;2023-08-08T13:23:36;23.10;68.20
41557;DHT22;27720;51.992;5.890;2023-08-08T13:26:02;22.90;67.70
41557;DHT22;27720;51.992;5.890;2023-08-08T13:28:29;22.70;68.30
41557;DHT22;27720;51.992;5.890;2023-08-08T13:30:55;22.60;69.10
41557;DHT22;27720;51.992;5.890;2023-08-08T13:33:21;22.60;69.30
41557;DHT22;27720;51.992;5.890;2023-08-08T13:35:47;22.50;70.00
41557;DHT22;27720;51.992;5.890;2023-08-08T13:38:13;22.70;70.40
41557;DHT22;27720;51.992;5.890;2023-08-08T13:40:43;22.80;70.40
41557;DHT22;27720;51.992;5.890;2023-08-08T13:43:09;22.90;70.20
41557;DHT22;27720;51.992;5.890;2023-08-08T13:45:35;22.90;68.80
41557;DHT22;27720;51.992;5.890;2023-08-08T13:48:01;22.80;69.50
41557;DHT22;27720;51.992;5.890;2023-08-08T13:50:27;22.90;69.70
41557;DHT22;27720;51.992;5.890;2023-08-08T13:52:54;22.90;69.80
41557;DHT22;27720;51.992;5.890;2023-08-08T13:55:20;23.00;69.10
41557;DHT22;27720;51.992;5.890;2023-08-08T13:57:45;22.80;69.30
41557;DHT22;27720;51.992;5.890;2023-08-08T14:00:11;22.70;68.90
41557;DHT22;27720;51.992;5.890;2023-08-08T14:02:38;22.60;69.90
41557;DHT22;27720;51.992;5.890;2023-08-08T14:05:04;22.50;70.40
41557;DHT22;27720;51.992;5.890;2023-08-08T14:07:35;22.50;70.60
41557;DHT22;27720;51.992;5.890;2023-08-08T14:10:02;22.50;71.10
41557;DHT22;27720;51.992;5.890;2023-08-08T14:12:29;22.40;70.70
41557;DHT22;27720;51.992;5.890;2023-08-08T14:14:55;22.40;71.00
41557;DHT22;27720;51.992;5.890;2023-08-08T14:17:21;22.40;71.30
41557;DHT22;27720;51.992;5.890;2023-08-08T14:19:47;22.40;71.40
41557;DHT22;27720;51.992;5.890;2023-08-08T14:22:13;22.40;71.50
41557;DHT22;27720;51.992;5.890;2023-08-08T14:24:39;22.40;71.70
41557;DHT22;27720;51.992;5.890;2023-08-08T14:27:05;22.40;71.40
41557;DHT22;27720;51.992;5.890;2023-08-08T14:29:31;22.30;71.50
41557;DHT22;27720;51.992;5.890;2023-08-08T14:31:56;22.20;72.00
41557;DHT22;27720;51.992;5.890;2023-08-08T14:34:32;22.20;71.90
41557;DHT22;27720;51.992;5.890;2023-08-08T14:36:58;22.20;72.10
41557;DHT22;27720;51.992;5.890;2023-08-08T14:39:24;22.10;72.20
41557;DHT22;27720;51.992;5.890;2023-08-08T14:41:50;22.20;72.50
41557;DHT22;27720;51.992;5.890;2023-08-08T14:44:16;22.20;72.50
41557;DHT22;27720;51.992;5.890;2023-08-08T14:46:42;22.30;72.30
41557;DHT22;27720;51.992;5.890;2023-08-08T14:49:08;22.40;71.80
41557;DHT22;27720;51.992;5.890;2023-08-08T14:51:35;22.40;72.00
41557;DHT22;27720;51.992;5.890;2023-08-08T14:54:01;22.50;72.10
41557;DHT22;27720;51.992;5.890;2023-08-08T14:56:27;22.70;72.20
41557;DHT22;27720;51.992;5.890;2023-08-08T14:58:53;22.90;71.70
41557;DHT22;27720;51.992;5.890;2023-08-08T15:01:18;22.80;71.20
41557;DHT22;27720;51.992;5.890;2023-08-08T15:03:44;22.90;70.90
41557;DHT22;27720;51.992;5.890;2023-08-08T15:06:10;22.90;71.10
41557;DHT22;27720;51.992;5.890;2023-08-08T15:08:36;22.80;70.20
41557;DHT22;27720;51.992;5.890;2023-08-08T15:11:02;22.70;70.30
41557;DHT22;27720;51.992;5.890;2023-08-08T15:13:28;22.80;70.90
41557;DHT22;27720;51.992;5.890;2023-08-08T15:15:54;22.80;70.20
41557;DHT22;27720;51.992;5.890;2023-08-08T15:18:20;22.80;70.10
41557;DHT22;27720;51.992;5.890;2023-08-08T15:20:45;22.90;69.20
41557;DHT22;27720;51.992;5.890;2023-08-08T15:23:11;22.90;69.20
41557;DHT22;27720;51.992;5.890;2023-08-08T15:25:40;22.80;69.60
41557;DHT22;27720;51.992;5.890;2023-08-08T15:28:07;22.90;69.30
41557;DHT22;27720;51.992;5.890;2023-08-08T15:30:33;23.00;69.70
41557;DHT22;27720;51.992;5.890;2023-08-08T15:32:58;23.00;70.00
41557;DHT22;27720;51.992;5.890;2023-08-08T15:35:24;23.10;70.20
41557;DHT22;27720;51.992;5.890;2023-08-08T15:37:50;23.10;70.30
41557;DHT22;27720;51.992;5.890;2023-08-08T15:40:16;23.20;70.50
41557;DHT22;27720;51.992;5.890;2023-08-08T15:42:41;23.10;70.10
41557;DHT22;27720;51.992;5.890;2023-08-08T15:45:09;23.10;69.80
41557;DHT22;27720;51.992;5.890;2023-08-08T15:47:35;23.10;69.40
41557;DHT22;27720;51.992;5.890;2023-08-08T15:50:01;23.10;69.10
41557;DHT22;27720;51.992;5.890;2023-08-08T15:52:27;23.20;69.10
41557;DHT22;27720;51.992;5.890;2023-08-08T15:54:53;23.20;69.00
41557;DHT22;27720;51.992;5.890;2023-08-08T15:57:19;23.30;69.10
41557;DHT22;27720;51.992;5.890;2023-08-08T15:59:45;23.20;68.90
41557;DHT22;27720;51.992;5.890;2023-08-08T16:02:11;23.20;69.10
41557;DHT22;27720;51.992;5.890;2023-08-08T16:04:37;23.20;69.40
41557;DHT22;27720;51.992;5.890;2023-08-08T16:07:03;23.20;69.30
41557;DHT22;27720;51.992;5.890;2023-08-08T16:09:29;23.00;69.40
41557;DHT22;27720;51.992;5.890;2023-08-08T16:11:55;22.90;69.40
41557;DHT22;27720;51.992;5.890;2023-08-08T16:14:20;22.80;69.20
41557;DHT22;27720;51.992;5.890;2023-08-08T16:16:46;22.60;69.00
41557;DHT22;27720;51.992;5.890;2023-08-08T16:19:12;22.60;69.50
41557;DHT22;27720;51.992;5.890;2023-08-08T16:21:38;22.60;69.70
41557;DHT22;27720;51.992;5.890;2023-08-08T16:24:04;22.60;70.00
41557;DHT22;27720;51.992;5.890;2023-08-08T16:26:30;22.60;70.10
41557;DHT22;27720;51.992;5.890;2023-08-08T16:28:56;22.60;70.40
41557;DHT22;27720;51.992;5.890;2023-08-08T16:31:21;22.60;70.70
41557;DHT22;27720;51.992;5.890;2023-08-08T16:33:48;22.60;70.90
41557;DHT22;27720;51.992;5.890;2023-08-08T16:36:13;22.50;70.90
41557;DHT22;27720;51.992;5.890;2023-08-08T16:38:41;22.40;71.20
41557;DHT22;27720;51.992;5.890;2023-08-08T16:41:07;22.30;71.20
41557;DHT22;27720;51.992;5.890;2023-08-08T16:43:37;22.20;71.10
41557;DHT22;27720;51.992;5.890;2023-08-08T16:46:03;22.10;71.20
41557;DHT22;27720;51.992;5.890;2023-08-08T16:48:29;22.00;71.00
41557;DHT22;27720;51.992;5.890;2023-08-08T16:50:56;21.90;71.00
41557;DHT22;27720;51.992;5.890;2023-08-08T16:53:22;21.80;71.40
41557;DHT22;27720;51.992;5.890;2023-08-08T16:55:48;21.80;71.50
41557;DHT22;27720;51.992;5.890;2023-08-08T16:58:14;21.80;71.90
41557;DHT22;27720;51.992;5.890;2023-08-08T17:00:40;21.80;72.00
41557;DHT22;27720;51.992;5.890;2023-08-08T17:03:07;21.80;72.20
41557;DHT22;27720;51.992;5.890;2023-08-08T17:05:33;21.70;72.20
41557;DHT22;27720;51.992;5.890;2023-08-08T17:07:59;21.70;72.60
41557;DHT22;27720;51.992;5.890;2023-08-08T17:10:25;21.60;72.80
41557;DHT22;27720;51.992;5.890;2023-08-08T17:12:50;21.60;73.00
41557;DHT22;27720;51.992;5.890;2023-08-08T17:15:16;21.60;73.00
41557;DHT22;27720;51.992;5.890;2023-08-08T17:17:42;21.60;72.40
41557;DHT22;27720;51.992;5.890;2023-08-08T17:20:08;21.50;72.60
41557;DHT22;27720;51.992;5.890;2023-08-08T17:22:36;21.50;72.80
41557;DHT22;27720;51.992;5.890;2023-08-08T17:25:01;21.50;73.20
41557;DHT22;27720;51.992;5.890;2023-08-08T17:27:27;21.40;73.40
41557;DHT22;27720;51.992;5.890;2023-08-08T17:29:53;21.40;73.80
41557;DHT22;27720;51.992;5.890;2023-08-08T17:32:19;21.30;74.20
41557;DHT22;27720;51.992;5.890;2023-08-08T17:34:44;21.30;75.00
41557;DHT22;27720;51.992;5.890;2023-08-08T17:37:10;21.20;75.70
41557;DHT22;27720;51.992;5.890;2023-08-08T17:39:36;21.00;76.40
41557;DHT22;27720;51.992;5.890;2023-08-08T17:42:01;21.00;77.20
41557;DHT22;27720;51.992;5.890;2023-08-08T17:44:27;20.90;77.80
41557;DHT22;27720;51.992;5.890;2023-08-08T17:46:53;20.80;78.30
41557;DHT22;27720;51.992;5.890;2023-08-08T17:49:19;20.70;79.00
41557;DHT22;27720;51.992;5.890;2023-08-08T17:51:45;20.70;79.40
41557;DHT22;27720;51.992;5.890;2023-08-08T17:54:10;20.70;79.60
41557;DHT22;27720;51.992;5.890;2023-08-08T17:56:36;20.70;79.70
41557;DHT22;27720;51.992;5.890;2023-08-08T17:59:02;20.70;80.00
41557;DHT22;27720;51.992;5.890;2023-08-08T18:01:28;20.60;80.10
41557;DHT22;27720;51.992;5.890;2023-08-08T18:03:53;20.60;80.20
41557;DHT22;27720;51.992;5.890;2023-08-08T18:06:19;20.60;80.80
41557;DHT22;27720;51.992;5.890;2023-08-08T18:08:45;20.50;81.60
41557;DHT22;27720;51.992;5.890;2023-08-08T18:11:11;20.30;82.50
41557;DHT22;27720;51.992;5.890;2023-08-08T18:13:37;20.20;83.20
41557;DHT22;27720;51.992;5.890;2023-08-08T18:16:03;20.10;83.70
41557;DHT22;27720;51.992;5.890;2023-08-08T18:18:29;20.00;84.70
41557;DHT22;27720;51.992;5.890;2023-08-08T18:20:55;19.90;85.30
41557;DHT22;27720;51.992;5.890;2023-08-08T18:23:21;19.80;85.80
41557;DHT22;27720;51.992;5.890;2023-08-08T18:25:48;19.80;86.30
41557;DHT22;27720;51.992;5.890;2023-08-08T18:28:14;19.70;86.60
41557;DHT22;27720;51.992;5.890;2023-08-08T18:30:40;19.70;86.90
41557;DHT22;27720;51.992;5.890;2023-08-08T18:33:05;19.70;87.10
41557;DHT22;27720;51.992;5.890;2023-08-08T18:35:31;19.70;87.40
41557;DHT22;27720;51.992;5.890;2023-08-08T18:37:57;19.80;87.70
41557;DHT22;27720;51.992;5.890;2023-08-08T18:40:23;19.70;88.30
41557;DHT22;27720;51.992;5.890;2023-08-08T18:42:49;19.70;88.90
41557;DHT22;27720;51.992;5.890;2023-08-08T18:45:15;19.60;89.20
41557;DHT22;27720;51.992;5.890;2023-08-08T18:47:41;19.60;89.60
41557;DHT22;27720;51.992;5.890;2023-08-08T18:50:08;19.50;89.80
41557;DHT22;27720;51.992;5.890;2023-08-08T18:52:34;19.50;90.00
41557;DHT22;27720;51.992;5.890;2023-08-08T18:55:00;19.50;90.10
41557;DHT22;27720;51.992;5.890;2023-08-08T18:57:26;19.40;90.30
41557;DHT22;27720;51.992;5.890;2023-08-08T18:59:52;19.40;90.50
41557;DHT22;27720;51.992;5.890;2023-08-08T19:02:17;19.30;90.80
41557;DHT22;27720;51.992;5.890;2023-08-08T19:04:43;19.20;91.10
41557;DHT22;27720;51.992;5.890;2023-08-08T19:07:12;19.10;91.30
41557;DHT22;27720;51.992;5.890;2023-08-08T19:09:38;19.10;91.70
41557;DHT22;27720;51.992;5.890;2023-08-08T19:12:04;18.90;91.80
41557;DHT22;27720;51.992;5.890;2023-08-08T19:14:30;18.90;92.00
41557;DHT22;27720;51.992;5.890;2023-08-08T19:16:56;19.00;92.60
41557;DHT22;27720;51.992;5.890;2023-08-08T19:19:21;19.00;92.60
41557;DHT22;27720;51.992;5.890;2023-08-08T19:21:50;19.00;92.90
41557;DHT22;27720;51.992;5.890;2023-08-08T19:24:18;18.90;93.20
41557;DHT22;27720;51.992;5.890;2023-08-08T19:27:02;18.90;93.50
41557;DHT22;27720;51.992;5.890;2023-08-08T19:29:28;18.90;93.70
41557;DHT22;27720;51.992;5.890;2023-08-08T19:31:54;18.80;94.10
41557;DHT22;27720;51.992;5.890;2023-08-08T19:34:20;18.80;94.30
41557;DHT22;27720;51.992;5.890;2023-08-08T19:36:47;18.80;94.50
41557;DHT22;27720;51.992;5.890;2023-08-08T19:39:15;18.70;94.80
41557;DHT22;27720;51.992;5.890;2023-08-08T19:41:41;18.60;95.00
41557;DHT22;27720;51.992;5.890;2023-08-08T19:44:08;18.40;95.20
41557;DHT22;27720;51.992;5.890;2023-08-08T19:46:34;18.40;95.50
41557;DHT22;27720;51.992;5.890;2023-08-08T19:48:59;18.40;95.60
41557;DHT22;27720;51.992;5.890;2023-08-08T19:51:26;18.40;95.80
41557;DHT22;27720;51.992;5.890;2023-08-08T19:53:54;18.30;96.00
41557;DHT22;27720;51.992;5.890;2023-08-08T19:56:20;18.30;96.20
41557;DHT22;27720;51.992;5.890;2023-08-08T19:58:53;18.20;96.40
41557;DHT22;27720;51.992;5.890;2023-08-08T20:02:03;18.20;96.50
41557;DHT22;27720;51.992;5.890;2023-08-08T20:04:31;18.20;96.80
41557;DHT22;27720;51.992;5.890;2023-08-08T20:07:07;18.20;96.90
41557;DHT22;27720;51.992;5.890;2023-08-08T20:09:40;18.20;97.00
41557;DHT22;27720;51.992;5.890;2023-08-08T20:12:06;18.20;97.10
41557;DHT22;27720;51.992;5.890;2023-08-08T20:20:24;18.30;97.50
41557;DHT22;27720;51.992;5.890;2023-08-08T20:22:50;18.30;97.60
41557;DHT22;27720;51.992;5.890;2023-08-08T20:25:46;18.30;97.70
41557;DHT22;27720;51.992;5.890;2023-08-08T20:28:14;18.30;97.60
41557;DHT22;27720;51.992;5.890;2023-08-08T20:32:11;18.30;97.80
41557;DHT22;27720;51.992;5.890;2023-08-08T20:35:08;18.30;97.90
41557;DHT22;27720;51.992;5.890;2023-08-08T20:37:39;18.30;98.20
41557;DHT22;27720;51.992;5.890;2023-08-08T20:40:05;18.20;98.30
41557;DHT22;27720;51.992;5.890;2023-08-08T20:42:33;18.30;98.30
41557;DHT22;27720;51.992;5.890;2023-08-08T20:45:00;18.20;98.50
41557;DHT22;27720;51.992;5.890;2023-08-08T20:47:25;18.10;98.70
41557;DHT22;27720;51.992;5.890;2023-08-08T20:49:51;18.00;98.90
41557;DHT22;27720;51.992;5.890;2023-08-08T20:52:17;18.00;99.30
41557;DHT22;27720;51.992;5.890;2023-08-08T20:54:43;18.00;99.60
41557;DHT22;27720;51.992;5.890;2023-08-08T20:57:09;18.00;99.90
41557;DHT22;27720;51.992;5.890;2023-08-08T20:59:34;18.00;99.90
41557;DHT22;27720;51.992;5.890;2023-08-08T21:02:10;17.90;99.90
41557;DHT22;27720;51.992;5.890;2023-08-08T21:04:36;17.90;99.90
41557;DHT22;27720;51.992;5.890;2023-08-08T21:07:01;17.90;99.90
41557;DHT22;27720;51.992;5.890;2023-08-08T21:09:27;17.90;99.90
41557;DHT22;27720;51.992;5.890;2023-08-08T21:11:53;17.90;99.90
41557;DHT22;27720;51.992;5.890;2023-08-08T21:14:19;17.90;99.90
41557;DHT22;27720;51.992;5.890;2023-08-08T21:16:50;17.90;99.90
41557;DHT22;27720;51.992;5.890;2023-08-08T21:19:16;17.90;99.90
41557;DHT22;27720;51.992;5.890;2023-08-08T21:21:42;17.80;99.90
41557;DHT22;27720;51.992;5.890;2023-08-08T21:24:08;17.80;99.90
41557;DHT22;27720;51.992;5.890;2023-08-08T21:26:36;17.60;99.90
41557;DHT22;27720;51.992;5.890;2023-08-08T21:29:05;17.60;99.90
41557;DHT22;27720;51.992;5.890;2023-08-08T21:31:30;17.60;99.90
41557;DHT22;27720;51.992;5.890;2023-08-08T21:33:56;17.50;99.90
41557;DHT22;27720;51.992;5.890;2023-08-08T21:36:22;17.50;99.90
41557;DHT22;27720;51.992;5.890;2023-08-08T21:38:48;17.50;99.90
41557;DHT22;27720;51.992;5.890;2023-08-08T21:41:14;17.50;99.90
41557;DHT22;27720;51.992;5.890;2023-08-08T21:43:46;17.60;99.90
41557;DHT22;27720;51.992;5.890;2023-08-08T21:46:11;17.60;99.90
41557;DHT22;27720;51.992;5.890;2023-08-08T21:48:40;17.60;99.90
41557;DHT22;27720;51.992;5.890;2023-08-08T21:51:06;17.60;99.90
41557;DHT22;27720;51.992;5.890;2023-08-08T21:53:32;17.60;99.90
41557;DHT22;27720;51.992;5.890;2023-08-08T21:56:02;17.60;99.90
41557;DHT22;27720;51.992;5.890;2023-08-08T21:58:34;17.60;99.90
41557;DHT22;27720;51.992;5.890;2023-08-08T22:01:02;17.60;99.90
41557;DHT22;27720;51.992;5.890;2023-08-08T22:03:28;17.60;99.90
41557;DHT22;27720;51.992;5.890;2023-08-08T22:05:57;17.50;99.90
41557;DHT22;27720;51.992;5.890;2023-08-08T22:08:26;17.60;99.90
41557;DHT22;27720;51.992;5.890;2023-08-08T22:10:51;17.50;99.90
41557;DHT22;27720;51.992;5.890;2023-08-08T22:13:24;17.50;99.90
41557;DHT22;27720;51.992;5.890;2023-08-08T22:15:49;17.50;99.90
41557;DHT22;27720;51.992;5.890;2023-08-08T22:18:17;17.50;99.90
41557;DHT22;27720;51.992;5.890;2023-08-08T22:20:44;17.50;99.90
41557;DHT22;27720;51.992;5.890;2023-08-08T22:23:12;17.40;99.90
41557;DHT22;27720;51.992;5.890;2023-08-08T22:25:38;17.40;99.90
41557;DHT22;27720;51.992;5.890;2023-08-08T22:28:04;17.40;99.90
41557;DHT22;27720;51.992;5.890;2023-08-08T22:30:31;17.40;99.90
41557;DHT22;27720;51.992;5.890;2023-08-08T22:32:57;17.40;99.90
41557;DHT22;27720;51.992;5.890;2023-08-08T22:35:23;17.40;99.90
41557;DHT22;27720;51.992;5.890;2023-08-08T22:37:49;17.40;99.90
41557;DHT22;27720;51.992;5.890;2023-08-08T22:40:14;17.50;99.90
41557;DHT22;27720;51.992;5.890;2023-08-08T22:42:41;17.40;99.90
41557;DHT22;27720;51.992;5.890;2023-08-08T22:45:07;17.40;99.90
41557;DHT22;27720;51.992;5.890;2023-08-08T22:47:34;17.40;99.90
41557;DHT22;27720;51.992;5.890;2023-08-08T22:50:00;17.40;99.90
41557;DHT22;27720;51.992;5.890;2023-08-08T22:52:25;17.40;99.90
41557;DHT22;27720;51.992;5.890;2023-08-08T22:54:52;17.40;99.90
41557;DHT22;27720;51.992;5.890;2023-08-08T22:57:18;17.40;99.90
41557;DHT22;27720;51.992;5.890;2023-08-08T22:59:44;17.40;99.90
41557;DHT22;27720;51.992;5.890;2023-08-08T23:02:10;17.40;99.90
41557;DHT22;27720;51.992;5.890;2023-08-08T23:04:36;17.30;99.90
41557;DHT22;27720;51.992;5.890;2023-08-08T23:07:05;17.40;99.90
41557;DHT22;27720;51.992;5.890;2023-08-08T23:09:31;17.30;99.90
41557;DHT22;27720;51.992;5.890;2023-08-08T23:11:57;17.30;99.90
41557;DHT22;27720;51.992;5.890;2023-08-08T23:14:23;17.30;99.90
41557;DHT22;27720;51.992;5.890;2023-08-08T23:16:54;17.20;99.90
41557;DHT22;27720;51.992;5.890;2023-08-08T23:19:20;17.20;99.90
41557;DHT22;27720;51.992;5.890;2023-08-08T23:21:46;17.20;99.90
41557;DHT22;27720;51.992;5.890;2023-08-08T23:24:13;17.10;99.90
41557;DHT22;27720;51.992;5.890;2023-08-08T23:26:38;17.10;99.90
41557;DHT22;27720;51.992;5.890;2023-08-08T23:29:05;17.10;99.90
41557;DHT22;27720;51.992;5.890;2023-08-08T23:31:31;17.10;99.90
41557;DHT22;27720;51.992;5.890;2023-08-08T23:33:57;17.10;99.90
41557;DHT22;27720;51.992;5.890;2023-08-08T23:36:23;17.10;99.90
41557;DHT22;27720;51.992;5.890;2023-08-08T23:38:49;17.10;99.90
41557;DHT22;27720;51.992;5.890;2023-08-08T23:41:48;17.10;99.90
41557;DHT22;27720;51.992;5.890;2023-08-08T23:44:14;17.10;99.90
41557;DHT22;27720;51.992;5.890;2023-08-08T23:46:40;17.10;99.90
41557;DHT22;27720;51.992;5.890;2023-08-08T23:49:06;17.10;99.90
41557;DHT22;27720;51.992;5.890;2023-08-08T23:51:33;17.00;99.90